map of EFD home
EFD - Airport
Location
City:  Houston, Texas, United States
Name:Ellington Field
ICAO:KEFD
IATA:EFD
FAA LID:EFD

Details
Type:Airport (Part 139 Class IV)
Use:Public/Civil
Latitude:2936'26"N (29.607333)
Longitude:9509'31"W (-95.158749)
Datum:WGS 1984
Elevation:32 ft (10 m)
Variation:2.37E (WMM2015 magnetic declination)
-0.11 annual change
Runways:3
Longest:9001 × 150 ft (2744 × 45.5 m), paved

Time
Time Zone:UTC-6 (DST-5)
Local Time:

Weather
METAR:KEFD 141150Z 16003KT 10SM SCT090 08/05 A2997
TAF:KEFD 141200Z 1412/1518 VRB06KT 9999 BKN120 QNH2993INS TX18/1420Z TN07/1412Z

Related Locations
Nearby:
Farthest:CCK: 11010 mi / 17719 km
West Island (Pulau Panjang) [Cocos (Keeling) Islands], CC

Find:

   beyond  
but within

Other Information
Maps:
NOTAMs:
Links:
Sources:

  
flag of United States
flag of Texas
flag of Houston
  

Airport Diagram

Airport diagram for EFD

Airport diagram PDF

Sectional Chart

Flight Planning
at skyvector.com

Satellite Image

Google Maps Satellite view

 

Copyright © 2004-2017 Karl L. Swartz. All rights reserved.
The Great Circle Mapper name and logo are trademarks of the Great Circle Mapper.
All other trademarks mentioned herein belong to their respective owners.
Please see credits for attibutions and further copyright information.

  Follow gcmap on Facebook Follow gcmap on Twitter Follow gcmap on Google+ GCmap on LinkedIn

hCard Microformat

Geo Microformat